sensor_id;sensor_type;location;lat;lon;timestamp;pressure;altitude;pressure_sealevel;temperature;humidity
73558;BME280;61829;53.286;10.434;2023-08-20T00:02:09;101777.06;;;21.52;84.87
73558;BME280;61829;53.286;10.434;2023-08-20T00:04:36;101783.59;;;21.51;84.51
73558;BME280;61829;53.286;10.434;2023-08-20T00:07:03;101779.88;;;21.45;84.96
73558;BME280;61829;53.286;10.434;2023-08-20T00:09:29;101788.84;;;21.41;84.59
73558;BME280;61829;53.286;10.434;2023-08-20T00:11:56;101788.22;;;21.39;85.28
73558;BME280;61829;53.286;10.434;2023-08-20T00:14:53;101799.25;;;21.02;86.21
73558;BME280;61829;53.286;10.434;2023-08-20T00:17:25;101804.94;;;21.19;85.26
73558;BME280;61829;53.286;10.434;2023-08-20T00:19:54;101805.53;;;21.21;84.15
73558;BME280;61829;53.286;10.434;2023-08-20T00:22:22;101806.72;;;20.76;86.75
73558;BME280;61829;53.286;10.434;2023-08-20T00:24:49;101813.94;;;21.07;85.46
73558;BME280;61829;53.286;10.434;2023-08-20T00:27:15;101819.78;;;21.11;84.95
73558;BME280;61829;53.286;10.434;2023-08-20T00:29:41;101824.44;;;21.11;85.09
73558;BME280;61829;53.286;10.434;2023-08-20T00:32:07;101821.06;;;21.08;84.96
73558;BME280;61829;53.286;10.434;2023-08-20T00:34:33;101828.94;;;21.05;85.23
73558;BME280;61829;53.286;10.434;2023-08-20T00:36:59;101823.91;;;21.02;85.14
73558;BME280;61829;53.286;10.434;2023-08-20T00:39:25;101831.50;;;21.00;85.29
73558;BME280;61829;53.286;10.434;2023-08-20T00:41:50;101839.38;;;20.96;85.26
73558;BME280;61829;53.286;10.434;2023-08-20T00:44:16;101833.88;;;20.96;85.37
73558;BME280;61829;53.286;10.434;2023-08-20T00:46:42;101840.44;;;20.95;85.40
73558;BME280;61829;53.286;10.434;2023-08-20T00:49:08;101834.56;;;20.92;85.44
73558;BME280;61829;53.286;10.434;2023-08-20T00:51:35;101843.25;;;20.89;85.73
73558;BME280;61829;53.286;10.434;2023-08-20T00:54:02;101837.63;;;20.83;85.96
73558;BME280;61829;53.286;10.434;2023-08-20T00:56:28;101830.72;;;20.81;85.87
73558;BME280;61829;53.286;10.434;2023-08-20T00:58:55;101834.75;;;20.78;85.78
73558;BME280;61829;53.286;10.434;2023-08-20T01:01:24;101828.66;;;20.76;86.13
73558;BME280;61829;53.286;10.434;2023-08-20T01:03:51;101828.41;;;20.16;88.97
73558;BME280;61829;53.286;10.434;2023-08-20T01:06:39;101828.25;;;20.29;88.82
73558;BME280;61829;53.286;10.434;2023-08-20T01:11:51;101827.13;;;20.62;86.96
73558;BME280;61829;53.286;10.434;2023-08-20T01:14:18;101819.13;;;20.60;87.03
73558;BME280;61829;53.286;10.434;2023-08-20T01:16:45;101822.94;;;20.59;86.92
73558;BME280;61829;53.286;10.434;2023-08-20T01:19:15;101816.00;;;20.57;86.99
73558;BME280;61829;53.286;10.434;2023-08-20T01:29:49;101825.41;;;20.42;86.75
73558;BME280;61829;53.286;10.434;2023-08-20T01:32:15;101826.91;;;20.38;86.94
73558;BME280;61829;53.286;10.434;2023-08-20T01:34:42;101832.00;;;20.35;87.79
73558;BME280;61829;53.286;10.434;2023-08-20T01:37:08;101826.97;;;20.32;87.17
73558;BME280;61829;53.286;10.434;2023-08-20T01:39:33;101830.78;;;20.31;87.27
73558;BME280;61829;53.286;10.434;2023-08-20T01:41:59;101829.31;;;20.28;87.21
73558;BME280;61829;53.286;10.434;2023-08-20T01:44:25;101830.59;;;20.26;87.20
73558;BME280;61829;53.286;10.434;2023-08-20T01:46:51;101837.16;;;20.25;87.34
73558;BME280;61829;53.286;10.434;2023-08-20T01:49:19;101839.28;;;20.23;87.17
73558;BME280;61829;53.286;10.434;2023-08-20T01:51:45;101844.13;;;20.21;86.83
73558;BME280;61829;53.286;10.434;2023-08-20T01:54:11;101848.16;;;20.18;86.79
73558;BME280;61829;53.286;10.434;2023-08-20T01:56:37;101841.22;;;20.15;86.85
73558;BME280;61829;53.286;10.434;2023-08-20T01:59:03;101843.34;;;20.13;86.83
73558;BME280;61829;53.286;10.434;2023-08-20T02:01:29;101836.44;;;20.11;86.94
73558;BME280;61829;53.286;10.434;2023-08-20T02:03:55;101843.19;;;20.08;86.65
73558;BME280;61829;53.286;10.434;2023-08-20T02:06:20;101849.09;;;20.05;86.45
73558;BME280;61829;53.286;10.434;2023-08-20T02:08:46;101844.09;;;20.02;86.96
73558;BME280;61829;53.286;10.434;2023-08-20T02:11:13;101835.25;;;20.00;87.22
73558;BME280;61829;53.286;10.434;2023-08-20T02:13:38;101844.59;;;19.54;89.64
73558;BME280;61829;53.286;10.434;2023-08-20T02:16:04;101840.34;;;19.26;91.36
73558;BME280;61829;53.286;10.434;2023-08-20T02:18:30;101841.31;;;19.39;90.77
73558;BME280;61829;53.286;10.434;2023-08-20T02:20:56;101844.72;;;19.72;88.46
73558;BME280;61829;53.286;10.434;2023-08-20T02:23:23;101846.56;;;19.79;87.59
73558;BME280;61829;53.286;10.434;2023-08-20T02:25:49;101837.31;;;19.80;87.19
73558;BME280;61829;53.286;10.434;2023-08-20T02:28:15;101836.25;;;19.81;86.95
73558;BME280;61829;53.286;10.434;2023-08-20T02:30:42;101842.16;;;19.78;87.33
73558;BME280;61829;53.286;10.434;2023-08-20T02:33:08;101840.69;;;19.75;87.61
73558;BME280;61829;53.286;10.434;2023-08-20T02:35:36;101849.13;;;19.73;87.49
73558;BME280;61829;53.286;10.434;2023-08-20T02:38:02;101842.22;;;19.71;88.02
73558;BME280;61829;53.286;10.434;2023-08-20T02:40:28;101845.16;;;19.69;87.91
73558;BME280;61829;53.286;10.434;2023-08-20T02:45:39;101850.63;;;19.69;87.92
73558;BME280;61829;53.286;10.434;2023-08-20T02:48:06;101844.31;;;19.69;88.44
73558;BME280;61829;53.286;10.434;2023-08-20T02:50:32;101843.69;;;19.67;88.41
73558;BME280;61829;53.286;10.434;2023-08-20T02:52:58;101843.94;;;19.65;88.03
73558;BME280;61829;53.286;10.434;2023-08-20T02:55:24;101850.41;;;19.64;88.28
73558;BME280;61829;53.286;10.434;2023-08-20T02:57:50;101850.66;;;19.63;87.97
73558;BME280;61829;53.286;10.434;2023-08-20T03:00:16;101840.78;;;19.62;88.07
73558;BME280;61829;53.286;10.434;2023-08-20T03:02:43;101837.41;;;19.60;88.28
73558;BME280;61829;53.286;10.434;2023-08-20T03:05:10;101845.81;;;19.58;88.34
73558;BME280;61829;53.286;10.434;2023-08-20T03:07:36;101837.03;;;19.56;88.89
73558;BME280;61829;53.286;10.434;2023-08-20T03:10:02;101840.81;;;19.55;88.58
73558;BME280;61829;53.286;10.434;2023-08-20T03:12:33;101844.59;;;19.54;88.89
73558;BME280;61829;53.286;10.434;2023-08-20T03:14:59;101843.97;;;19.52;89.35
73558;BME280;61829;53.286;10.434;2023-08-20T03:17:25;101846.09;;;19.50;90.27
73558;BME280;61829;53.286;10.434;2023-08-20T03:22:23;101849.50;;;19.45;90.83
73558;BME280;61829;53.286;10.434;2023-08-20T03:24:48;101853.72;;;19.41;90.50
73558;BME280;61829;53.286;10.434;2023-08-20T03:27:16;101841.94;;;19.41;90.53
73558;BME280;61829;53.286;10.434;2023-08-20T03:29:42;101851.38;;;18.93;93.60
73558;BME280;61829;53.286;10.434;2023-08-20T03:32:08;101843.91;;;18.69;95.85
73558;BME280;61829;53.286;10.434;2023-08-20T03:34:34;101852.75;;;18.57;96.55
73558;BME280;61829;53.286;10.434;2023-08-20T03:37:01;101858.00;;;18.52;96.70
73558;BME280;61829;53.286;10.434;2023-08-20T03:39:26;101864.25;;;18.59;95.99
73558;BME280;61829;53.286;10.434;2023-08-20T03:41:53;101861.75;;;18.58;95.78
73558;BME280;61829;53.286;10.434;2023-08-20T03:44:19;101870.16;;;18.63;95.40
73558;BME280;61829;53.286;10.434;2023-08-20T03:46:45;101865.88;;;18.94;93.49
73558;BME280;61829;53.286;10.434;2023-08-20T03:49:11;101877.59;;;19.14;91.22
73558;BME280;61829;53.286;10.434;2023-08-20T03:51:37;101869.59;;;19.19;90.49
73558;BME280;61829;53.286;10.434;2023-08-20T03:54:03;101869.59;;;19.19;90.40
73558;BME280;61829;53.286;10.434;2023-08-20T03:56:29;101868.97;;;19.17;90.66
73558;BME280;61829;53.286;10.434;2023-08-20T03:58:55;101873.59;;;19.17;89.89
73558;BME280;61829;53.286;10.434;2023-08-20T04:01:21;101868.34;;;19.15;90.28
73558;BME280;61829;53.286;10.434;2023-08-20T04:03:47;101869.59;;;19.13;90.29
73558;BME280;61829;53.286;10.434;2023-08-20T04:06:14;101865.22;;;19.12;90.12
73558;BME280;61829;53.286;10.434;2023-08-20T04:08:40;101866.25;;;19.11;90.21
73558;BME280;61829;53.286;10.434;2023-08-20T04:11:07;101876.56;;;19.09;90.10
73558;BME280;61829;53.286;10.434;2023-08-20T04:13:33;101880.34;;;19.07;90.48
73558;BME280;61829;53.286;10.434;2023-08-20T04:15:59;101887.69;;;19.07;90.26
73558;BME280;61829;53.286;10.434;2023-08-20T04:18:25;101887.94;;;19.05;89.91
73558;BME280;61829;53.286;10.434;2023-08-20T04:20:52;101887.94;;;19.05;89.93
73558;BME280;61829;53.286;10.434;2023-08-20T04:23:19;101893.59;;;19.04;90.29
73558;BME280;61829;53.286;10.434;2023-08-20T04:25:46;101896.34;;;19.04;90.08
73558;BME280;61829;53.286;10.434;2023-08-20T04:28:12;101897.81;;;19.06;90.18
73558;BME280;61829;53.286;10.434;2023-08-20T04:30:38;101894.22;;;19.06;90.26
73558;BME280;61829;53.286;10.434;2023-08-20T04:33:05;101902.19;;;19.07;90.44
73558;BME280;61829;53.286;10.434;2023-08-20T04:35:31;101896.53;;;19.09;90.57
73558;BME280;61829;53.286;10.434;2023-08-20T04:37:57;101903.47;;;19.12;90.53
73558;BME280;61829;53.286;10.434;2023-08-20T04:40:23;101902.19;;;19.14;90.86
73558;BME280;61829;53.286;10.434;2023-08-20T04:42:49;101898.41;;;19.15;91.27
73558;BME280;61829;53.286;10.434;2023-08-20T04:45:15;101900.06;;;19.16;91.40
73558;BME280;61829;53.286;10.434;2023-08-20T04:47:43;101912.47;;;19.19;91.31
73558;BME280;61829;53.286;10.434;2023-08-20T04:50:09;101908.47;;;19.21;91.02
73558;BME280;61829;53.286;10.434;2023-08-20T04:52:35;101908.25;;;19.23;91.38
73558;BME280;61829;53.286;10.434;2023-08-20T04:55:02;101905.94;;;19.26;91.92
73558;BME280;61829;53.286;10.434;2023-08-20T04:57:28;101910.97;;;19.29;91.50
73558;BME280;61829;53.286;10.434;2023-08-20T04:59:54;101898.75;;;19.32;91.91
73558;BME280;61829;53.286;10.434;2023-08-20T05:02:20;101907.97;;;19.38;91.81
73558;BME280;61829;53.286;10.434;2023-08-20T05:04:46;101911.50;;;19.51;91.58
73558;BME280;61829;53.286;10.434;2023-08-20T05:07:12;101915.31;;;19.89;91.10
73558;BME280;61829;53.286;10.434;2023-08-20T05:09:38;101922.56;;;20.33;90.14
73558;BME280;61829;53.286;10.434;2023-08-20T05:12:04;101914.78;;;20.80;88.01
73558;BME280;61829;53.286;10.434;2023-08-20T05:14:30;101924.94;;;21.35;85.91
73558;BME280;61829;53.286;10.434;2023-08-20T05:16:56;101917.59;;;21.66;84.12
73558;BME280;61829;53.286;10.434;2023-08-20T05:19:27;101929.09;;;21.74;82.70
73558;BME280;61829;53.286;10.434;2023-08-20T05:21:52;101916.75;;;22.07;81.17
73558;BME280;61829;53.286;10.434;2023-08-20T05:24:25;101911.47;;;22.24;80.09
73558;BME280;61829;53.286;10.434;2023-08-20T05:27:12;101911.72;;;22.34;79.47
73558;BME280;61829;53.286;10.434;2023-08-20T05:29:40;101912.09;;;22.50;78.06
73558;BME280;61829;53.286;10.434;2023-08-20T05:32:07;101913.63;;;22.93;76.27
73558;BME280;61829;53.286;10.434;2023-08-20T05:34:33;101914.31;;;23.23;75.17
73558;BME280;61829;53.286;10.434;2023-08-20T05:37:02;101907.81;;;23.70;73.25
73558;BME280;61829;53.286;10.434;2023-08-20T05:39:42;101906.16;;;24.14;71.20
73558;BME280;61829;53.286;10.434;2023-08-20T05:42:09;101920.72;;;24.60;69.71
73558;BME280;61829;53.286;10.434;2023-08-20T05:44:36;101918.03;;;25.04;68.09
73558;BME280;61829;53.286;10.434;2023-08-20T05:47:03;101906.13;;;25.43;66.53
73558;BME280;61829;53.286;10.434;2023-08-20T05:49:31;101901.31;;;25.82;64.08
73558;BME280;61829;53.286;10.434;2023-08-20T05:51:57;101898.97;;;26.28;63.00
73558;BME280;61829;53.286;10.434;2023-08-20T05:54:23;101882.09;;;26.62;60.61
73558;BME280;61829;53.286;10.434;2023-08-20T05:56:49;101876.44;;;26.84;58.03
73558;BME280;61829;53.286;10.434;2023-08-20T05:59:15;101854.31;;;26.94;57.29
73558;BME280;61829;53.286;10.434;2023-08-20T06:01:44;101842.16;;;27.00;57.13
73558;BME280;61829;53.286;10.434;2023-08-20T06:04:10;101837.63;;;27.26;56.90
73558;BME280;61829;53.286;10.434;2023-08-20T06:06:36;101825.47;;;27.53;54.73
73558;BME280;61829;53.286;10.434;2023-08-20T06:09:02;101841.56;;;27.66;55.51
73558;BME280;61829;53.286;10.434;2023-08-20T06:11:28;101844.94;;;27.89;54.38
73558;BME280;61829;53.286;10.434;2023-08-20T06:13:54;101859.88;;;28.03;53.88
73558;BME280;61829;53.286;10.434;2023-08-20T06:16:20;101875.38;;;28.25;54.19
73558;BME280;61829;53.286;10.434;2023-08-20T06:18:47;101887.03;;;28.37;53.65
73558;BME280;61829;53.286;10.434;2023-08-20T06:21:13;101883.69;;;28.55;53.01
73558;BME280;61829;53.286;10.434;2023-08-20T06:23:39;101886.72;;;28.59;52.33
73558;BME280;61829;53.286;10.434;2023-08-20T06:26:05;101880.03;;;28.80;51.65
73558;BME280;61829;53.286;10.434;2023-08-20T06:28:31;101882.13;;;29.24;51.31
73558;BME280;61829;53.286;10.434;2023-08-20T06:30:57;101895.53;;;29.57;50.56
73558;BME280;61829;53.286;10.434;2023-08-20T06:33:23;101894.84;;;29.80;49.45
73558;BME280;61829;53.286;10.434;2023-08-20T06:35:49;101896.25;;;30.12;49.26
73558;BME280;61829;53.286;10.434;2023-08-20T06:38:15;101888.03;;;30.36;48.24
73558;BME280;61829;53.286;10.434;2023-08-20T06:40:41;101893.97;;;30.53;47.92
73558;BME280;61829;53.286;10.434;2023-08-20T06:43:07;101900.78;;;30.66;46.76
73558;BME280;61829;53.286;10.434;2023-08-20T06:45:33;101909.22;;;30.85;46.32
73558;BME280;61829;53.286;10.434;2023-08-20T06:47:59;101900.47;;;30.97;45.82
73558;BME280;61829;53.286;10.434;2023-08-20T06:50:25;101917.06;;;31.07;45.34
73558;BME280;61829;53.286;10.434;2023-08-20T06:52:51;101915.97;;;31.27;46.31
73558;BME280;61829;53.286;10.434;2023-08-20T06:55:18;101916.84;;;31.46;45.00
73558;BME280;61829;53.286;10.434;2023-08-20T06:57:44;101916.25;;;31.68;45.08
73558;BME280;61829;53.286;10.434;2023-08-20T07:00:10;101905.84;;;31.93;44.63
73558;BME280;61829;53.286;10.434;2023-08-20T07:02:36;101915.78;;;31.80;43.07
73558;BME280;61829;53.286;10.434;2023-08-20T07:05:02;101915.59;;;31.76;44.54
73558;BME280;61829;53.286;10.434;2023-08-20T07:07:28;101912.91;;;32.04;43.69
73558;BME280;61829;53.286;10.434;2023-08-20T07:09:54;101914.06;;;32.36;42.62
73558;BME280;61829;53.286;10.434;2023-08-20T07:12:20;101910.84;;;32.61;41.96
73558;BME280;61829;53.286;10.434;2023-08-20T07:14:46;101918.28;;;32.80;41.09
73558;BME280;61829;53.286;10.434;2023-08-20T07:17:12;101918.81;;;32.82;39.64
73558;BME280;61829;53.286;10.434;2023-08-20T07:19:38;101915.31;;;32.90;40.42
73558;BME280;61829;53.286;10.434;2023-08-20T07:22:04;101918.63;;;33.06;39.69
73558;BME280;61829;53.286;10.434;2023-08-20T07:24:30;101928.44;;;33.17;39.44
73558;BME280;61829;53.286;10.434;2023-08-20T07:27:01;101924.31;;;33.15;39.74
73558;BME280;61829;53.286;10.434;2023-08-20T07:29:29;101917.69;;;33.24;39.27
73558;BME280;61829;53.286;10.434;2023-08-20T07:31:56;101923.03;;;33.35;39.74
73558;BME280;61829;53.286;10.434;2023-08-20T07:34:22;101912.28;;;33.56;39.04
73558;BME280;61829;53.286;10.434;2023-08-20T07:36:49;101919.50;;;33.57;39.71
73558;BME280;61829;53.286;10.434;2023-08-20T07:39:16;101917.34;;;33.53;39.13
73558;BME280;61829;53.286;10.434;2023-08-20T07:41:42;101920.41;;;33.16;37.42
73558;BME280;61829;53.286;10.434;2023-08-20T07:44:08;101918.91;;;32.77;39.24
73558;BME280;61829;53.286;10.434;2023-08-20T07:46:34;101918.28;;;32.80;40.24
73558;BME280;61829;53.286;10.434;2023-08-20T07:49:00;101916.50;;;32.24;41.04
73558;BME280;61829;53.286;10.434;2023-08-20T07:51:26;101916.53;;;32.37;41.00
73558;BME280;61829;53.286;10.434;2023-08-20T07:53:52;101913.63;;;32.61;40.77
73558;BME280;61829;53.286;10.434;2023-08-20T07:56:18;101904.25;;;32.99;39.16
73558;BME280;61829;53.286;10.434;2023-08-20T07:58:44;101912.94;;;33.11;39.56
73558;BME280;61829;53.286;10.434;2023-08-20T08:01:10;101925.66;;;33.17;38.18
73558;BME280;61829;53.286;10.434;2023-08-20T08:03:36;101934.63;;;33.42;38.17
73558;BME280;61829;53.286;10.434;2023-08-20T08:06:03;101935.09;;;33.71;37.04
73558;BME280;61829;53.286;10.434;2023-08-20T08:08:28;101936.22;;;33.84;37.69
73558;BME280;61829;53.286;10.434;2023-08-20T08:10:55;101928.88;;;33.11;37.26
73558;BME280;61829;53.286;10.434;2023-08-20T08:13:22;101940.06;;;33.11;38.35
73558;BME280;61829;53.286;10.434;2023-08-20T08:15:49;101939.50;;;33.36;38.06
73558;BME280;61829;53.286;10.434;2023-08-20T08:18:16;101931.00;;;33.69;36.76
73558;BME280;61829;53.286;10.434;2023-08-20T08:20:42;101933.47;;;33.93;36.22
73558;BME280;61829;53.286;10.434;2023-08-20T08:23:08;101943.88;;;34.15;36.05
73558;BME280;61829;53.286;10.434;2023-08-20T08:25:37;101939.34;;;34.28;36.39
73558;BME280;61829;53.286;10.434;2023-08-20T08:28:04;101945.91;;;34.46;36.44
73558;BME280;61829;53.286;10.434;2023-08-20T08:30:31;101934.84;;;34.40;35.48
73558;BME280;61829;53.286;10.434;2023-08-20T08:32:58;101950.97;;;34.43;35.62
73558;BME280;61829;53.286;10.434;2023-08-20T08:35:24;101940.66;;;34.53;35.41
73558;BME280;61829;53.286;10.434;2023-08-20T08:37:50;101956.25;;;34.68;35.50
73558;BME280;61829;53.286;10.434;2023-08-20T08:40:17;101945.84;;;34.59;35.15
73558;BME280;61829;53.286;10.434;2023-08-20T08:42:47;101945.94;;;34.54;35.83
73558;BME280;61829;53.286;10.434;2023-08-20T08:45:14;101943.91;;;34.69;35.63
73558;BME280;61829;53.286;10.434;2023-08-20T08:47:42;101945.56;;;34.70;35.45
73558;BME280;61829;53.286;10.434;2023-08-20T08:50:08;101949.66;;;34.41;35.53
73558;BME280;61829;53.286;10.434;2023-08-20T08:52:37;101946.28;;;34.30;36.54
73558;BME280;61829;53.286;10.434;2023-08-20T08:55:05;101950.47;;;34.41;36.43
73558;BME280;61829;53.286;10.434;2023-08-20T08:57:37;101949.66;;;34.18;36.88
73558;BME280;61829;53.286;10.434;2023-08-20T09:00:05;101948.34;;;33.80;37.50
73558;BME280;61829;53.286;10.434;2023-08-20T09:02:31;101956.59;;;33.85;37.16
73558;BME280;61829;53.286;10.434;2023-08-20T09:04:59;101959.69;;;34.19;36.33
73558;BME280;61829;53.286;10.434;2023-08-20T09:07:36;101969.75;;;34.43;36.55
73558;BME280;61829;53.286;10.434;2023-08-20T09:10:08;101961.94;;;34.31;36.51
73558;BME280;61829;53.286;10.434;2023-08-20T09:12:37;101966.97;;;34.43;36.02
73558;BME280;61829;53.286;10.434;2023-08-20T09:15:14;101962.97;;;34.58;35.53
73558;BME280;61829;53.286;10.434;2023-08-20T09:17:49;101960.78;;;34.55;36.15
73558;BME280;61829;53.286;10.434;2023-08-20T09:20:15;101963.78;;;34.36;35.94
73558;BME280;61829;53.286;10.434;2023-08-20T09:22:48;101960.50;;;34.11;36.23
73558;BME280;61829;53.286;10.434;2023-08-20T09:25:15;101951.34;;;33.83;36.16
73558;BME280;61829;53.286;10.434;2023-08-20T09:27:43;101957.56;;;33.80;37.26
73558;BME280;61829;53.286;10.434;2023-08-20T09:30:09;101961.78;;;33.55;37.32
73558;BME280;61829;53.286;10.434;2023-08-20T09:32:36;101962.72;;;33.87;37.11
73558;BME280;61829;53.286;10.434;2023-08-20T09:35:02;101963.66;;;34.18;36.85
73558;BME280;61829;53.286;10.434;2023-08-20T09:37:29;101956.53;;;34.35;36.27
73558;BME280;61829;53.286;10.434;2023-08-20T09:39:54;101962.88;;;34.49;36.11
73558;BME280;61829;53.286;10.434;2023-08-20T09:42:22;101963.53;;;34.46;36.30
73558;BME280;61829;53.286;10.434;2023-08-20T09:44:48;101964.13;;;34.12;36.07
73558;BME280;61829;53.286;10.434;2023-08-20T09:47:16;101963.16;;;33.80;37.12
73558;BME280;61829;53.286;10.434;2023-08-20T09:49:43;101962.91;;;33.90;38.06
73558;BME280;61829;53.286;10.434;2023-08-20T09:52:12;101954.25;;;33.78;36.93
73558;BME280;61829;53.286;10.434;2023-08-20T09:57:33;101951.34;;;33.83;37.01
73558;BME280;61829;53.286;10.434;2023-08-20T10:00:00;101956.38;;;33.59;38.15
73558;BME280;61829;53.286;10.434;2023-08-20T10:02:27;101959.97;;;33.73;39.00
73558;BME280;61829;53.286;10.434;2023-08-20T10:04:53;101953.00;;;33.84;39.22
73558;BME280;61829;53.286;10.434;2023-08-20T10:07:22;101958.13;;;33.54;37.84
73558;BME280;61829;53.286;10.434;2023-08-20T10:09:50;101959.69;;;33.47;38.28
73558;BME280;61829;53.286;10.434;2023-08-20T10:12:18;101960.06;;;33.68;38.75
73558;BME280;61829;53.286;10.434;2023-08-20T10:14:45;101947.44;;;34.07;37.71
73558;BME280;61829;53.286;10.434;2023-08-20T10:17:12;101957.81;;;34.29;37.11
73558;BME280;61829;53.286;10.434;2023-08-20T10:19:38;101948.53;;;34.51;37.24
73558;BME280;61829;53.286;10.434;2023-08-20T10:22:04;101951.31;;;34.73;36.70
73558;BME280;61829;53.286;10.434;2023-08-20T10:24:47;101942.13;;;34.50;36.32
73558;BME280;61829;53.286;10.434;2023-08-20T10:27:24;101936.13;;;34.34;37.14
73558;BME280;61829;53.286;10.434;2023-08-20T10:29:52;101943.47;;;34.53;37.33
73558;BME280;61829;53.286;10.434;2023-08-20T10:32:19;101927.06;;;34.60;36.58
73558;BME280;61829;53.286;10.434;2023-08-20T10:34:51;101923.44;;;34.59;36.26
73558;BME280;61829;53.286;10.434;2023-08-20T10:37:27;101917.41;;;34.75;36.36
73558;BME280;61829;53.286;10.434;2023-08-20T10:39:55;101925.09;;;34.60;37.54
73558;BME280;61829;53.286;10.434;2023-08-20T10:42:28;101917.25;;;34.17;37.56
73558;BME280;61829;53.286;10.434;2023-08-20T10:45:04;101916.69;;;33.70;38.28
73558;BME280;61829;53.286;10.434;2023-08-20T10:47:58;101924.13;;;33.75;38.31
73558;BME280;61829;53.286;10.434;2023-08-20T10:50:29;101926.72;;;33.71;38.39
73558;BME280;61829;53.286;10.434;2023-08-20T10:52:55;101926.31;;;34.01;37.68
73558;BME280;61829;53.286;10.434;2023-08-20T10:55:23;101922.06;;;34.26;37.17
73558;BME280;61829;53.286;10.434;2023-08-20T10:57:56;101927.78;;;34.20;37.99
73558;BME280;61829;53.286;10.434;2023-08-20T11:00:23;101925.94;;;34.16;38.16
73558;BME280;61829;53.286;10.434;2023-08-20T11:02:50;101922.91;;;34.26;37.73
73558;BME280;61829;53.286;10.434;2023-08-20T11:05:18;101927.91;;;34.15;36.70
73558;BME280;61829;53.286;10.434;2023-08-20T11:07:46;101921.38;;;34.20;37.57
73558;BME280;61829;53.286;10.434;2023-08-20T11:10:14;101912.16;;;34.51;38.13
73558;BME280;61829;53.286;10.434;2023-08-20T11:12:45;101919.88;;;34.76;37.89
73558;BME280;61829;53.286;10.434;2023-08-20T11:15:11;101914.28;;;34.76;36.70
73558;BME280;61829;53.286;10.434;2023-08-20T11:17:45;101916.47;;;34.88;36.75
73558;BME280;61829;53.286;10.434;2023-08-20T11:20:13;101910.09;;;35.05;36.31
73558;BME280;61829;53.286;10.434;2023-08-20T11:22:40;101918.25;;;35.33;36.12
73558;BME280;61829;53.286;10.434;2023-08-20T11:25:10;101920.41;;;35.36;35.60
73558;BME280;61829;53.286;10.434;2023-08-20T11:27:42;101920.72;;;35.25;35.80
73558;BME280;61829;53.286;10.434;2023-08-20T11:30:11;101924.88;;;35.37;35.49
73558;BME280;61829;53.286;10.434;2023-08-20T11:32:39;101922.09;;;35.45;35.82
73558;BME280;61829;53.286;10.434;2023-08-20T11:35:06;101921.84;;;35.07;35.70
73558;BME280;61829;53.286;10.434;2023-08-20T11:37:33;101927.38;;;34.98;35.88
73558;BME280;61829;53.286;10.434;2023-08-20T11:39:59;101933.84;;;34.68;36.78
73558;BME280;61829;53.286;10.434;2023-08-20T11:42:26;101931.00;;;34.59;37.03
73558;BME280;61829;53.286;10.434;2023-08-20T11:44:55;101939.84;;;34.83;37.33
73558;BME280;61829;53.286;10.434;2023-08-20T11:47:22;101937.69;;;34.80;36.37
73558;BME280;61829;53.286;10.434;2023-08-20T11:50:02;101929.25;;;34.72;36.28
73558;BME280;61829;53.286;10.434;2023-08-20T11:52:31;101929.94;;;34.77;36.69
73558;BME280;61829;53.286;10.434;2023-08-20T11:54:58;101934.81;;;34.63;36.43
73558;BME280;61829;53.286;10.434;2023-08-20T11:57:24;101930.53;;;34.57;37.19
73558;BME280;61829;53.286;10.434;2023-08-20T11:59:50;101928.88;;;34.64;37.23
73558;BME280;61829;53.286;10.434;2023-08-20T12:02:25;101929.94;;;34.77;35.92
73558;BME280;61829;53.286;10.434;2023-08-20T12:04:51;101933.53;;;35.09;36.13
73558;BME280;61829;53.286;10.434;2023-08-20T12:07:17;101924.88;;;35.37;35.36
73558;BME280;61829;53.286;10.434;2023-08-20T12:09:43;101921.38;;;35.22;35.21
73558;BME280;61829;53.286;10.434;2023-08-20T12:12:11;101924.00;;;35.19;35.07
73558;BME280;61829;53.286;10.434;2023-08-20T12:14:37;101918.31;;;35.01;35.38
73558;BME280;61829;53.286;10.434;2023-08-20T12:17:04;101925.41;;;34.99;36.07
73558;BME280;61829;53.286;10.434;2023-08-20T12:19:30;101920.38;;;34.78;36.61
73558;BME280;61829;53.286;10.434;2023-08-20T12:21:56;101917.59;;;34.78;37.75
73558;BME280;61829;53.286;10.434;2023-08-20T12:24:25;101914.16;;;34.90;37.12
73558;BME280;61829;53.286;10.434;2023-08-20T12:26:52;101913.94;;;35.09;36.43
73558;BME280;61829;53.286;10.434;2023-08-20T12:29:18;101922.03;;;35.19;35.88
73558;BME280;61829;53.286;10.434;2023-08-20T12:31:45;101913.31;;;35.29;36.45
73558;BME280;61829;53.286;10.434;2023-08-20T12:34:10;101917.59;;;35.36;35.51
73558;BME280;61829;53.286;10.434;2023-08-20T12:36:38;101912.31;;;35.25;35.84
73558;BME280;61829;53.286;10.434;2023-08-20T12:39:04;101912.47;;;35.20;35.87
73558;BME280;61829;53.286;10.434;2023-08-20T12:41:31;101912.28;;;35.08;36.50
73558;BME280;61829;53.286;10.434;2023-08-20T12:43:58;101916.28;;;34.84;36.58
73558;BME280;61829;53.286;10.434;2023-08-20T12:46:25;101920.44;;;34.56;36.18
73558;BME280;61829;53.286;10.434;2023-08-20T12:48:51;101914.44;;;34.17;36.80
73558;BME280;61829;53.286;10.434;2023-08-20T12:51:17;101914.34;;;33.86;38.08
73558;BME280;61829;53.286;10.434;2023-08-20T12:53:43;101917.84;;;33.92;38.17
73558;BME280;61829;53.286;10.434;2023-08-20T12:56:09;101914.78;;;33.80;37.37
73558;BME280;61829;53.286;10.434;2023-08-20T12:58:36;101912.09;;;33.24;38.26
73558;BME280;61829;53.286;10.434;2023-08-20T13:01:02;101915.81;;;32.92;39.43